<?xml version="1.0" encoding="UTF-8" standalone="no" ?>
<gpx xmlns="http://www.topografix.com/GPX/1/1" xmlns:xsi="http://www.w3.org/2001/XMLSchema-instance" xsi:schemaLocation="http://www.topografix.com/GPX/1/1 http://www.topografix.com/GPX/1/1/gpx.xsd" version="1.1" creator="VisuGPX - https://www.visugpx.com">
  <metadata>
    <name>Sederon - J4 apm</name>
    <desc><![CDATA[Sederon - J4 apm ggggggggggggggggggggggggggggggggggggggggggggggggggggggggggggggggg]]></desc>
  </metadata>
  <trk>
    <name><![CDATA[9257257-Sederon - J4 apm]]></name>
    <trkseg>
      <trkpt lat="44.27115" lon="5.55779">
        <ele>1310</ele>
        <time>2018-10-29T11:03:43Z</time>
      </trkpt>
      <trkpt lat="44.27128" lon="5.55813">
        <ele>1315</ele>
        <time>2018-10-29T11:04:43Z</time>
      </trkpt>
      <trkpt lat="44.27121" lon="5.55837">
        <ele>1317</ele>
        <time>2018-10-29T11:05:43Z</time>
      </trkpt>
      <trkpt lat="44.27118" lon="5.55864">
        <ele>1321</ele>
        <time>2018-10-29T11:06:43Z</time>
      </trkpt>
      <trkpt lat="44.27115" lon="5.55898">
        <ele>1326</ele>
        <time>2018-10-29T11:07:43Z</time>
      </trkpt>
      <trkpt lat="44.27114" lon="5.55913">
        <ele>1328</ele>
        <time>2018-10-29T11:08:43Z</time>
      </trkpt>
      <trkpt lat="44.27092" lon="5.55924">
        <ele>1329</ele>
        <time>2018-10-29T11:09:43Z</time>
      </trkpt>
      <trkpt lat="44.27082" lon="5.55919">
        <ele>1328</ele>
        <time>2018-10-29T11:10:43Z</time>
      </trkpt>
      <trkpt lat="44.27074" lon="5.5596">
        <ele>1336</ele>
        <time>2018-10-29T11:11:43Z</time>
      </trkpt>
      <trkpt lat="44.27076" lon="5.56003">
        <ele>1343</ele>
        <time>2018-10-29T11:12:43Z</time>
      </trkpt>
      <trkpt lat="44.27084" lon="5.56045">
        <ele>1348</ele>
        <time>2018-10-29T11:13:43Z</time>
      </trkpt>
      <trkpt lat="44.27074" lon="5.56071">
        <ele>1352</ele>
        <time>2018-10-29T11:14:43Z</time>
      </trkpt>
      <trkpt lat="44.27055" lon="5.56072">
        <ele>1353</ele>
        <time>2018-10-29T11:15:43Z</time>
      </trkpt>
      <trkpt lat="44.27036" lon="5.56075">
        <ele>1354</ele>
        <time>2018-10-29T11:16:43Z</time>
      </trkpt>
      <trkpt lat="44.27023" lon="5.56086">
        <ele>1355</ele>
        <time>2018-10-29T11:17:43Z</time>
      </trkpt>
      <trkpt lat="44.26988" lon="5.56091">
        <ele>1357</ele>
        <time>2018-10-29T11:18:43Z</time>
      </trkpt>
      <trkpt lat="44.26973" lon="5.56103">
        <ele>1360</ele>
        <time>2018-10-29T11:19:43Z</time>
      </trkpt>
      <trkpt lat="44.26963" lon="5.56113">
        <ele>1361</ele>
        <time>2018-10-29T11:20:43Z</time>
      </trkpt>
      <trkpt lat="44.26954" lon="5.56122">
        <ele>1363</ele>
        <time>2018-10-29T11:21:43Z</time>
      </trkpt>
      <trkpt lat="44.2694" lon="5.56133">
        <ele>1365</ele>
        <time>2018-10-29T11:22:43Z</time>
      </trkpt>
      <trkpt lat="44.26931" lon="5.56153">
        <ele>1367</ele>
        <time>2018-10-29T11:23:43Z</time>
      </trkpt>
      <trkpt lat="44.26916" lon="5.56171">
        <ele>1369</ele>
        <time>2018-10-29T11:24:43Z</time>
      </trkpt>
      <trkpt lat="44.26905" lon="5.56212">
        <ele>1373</ele>
        <time>2018-10-29T11:25:43Z</time>
      </trkpt>
      <trkpt lat="44.26899" lon="5.56235">
        <ele>1376</ele>
        <time>2018-10-29T11:26:43Z</time>
      </trkpt>
      <trkpt lat="44.26885" lon="5.56268">
        <ele>1380</ele>
        <time>2018-10-29T11:27:43Z</time>
      </trkpt>
      <trkpt lat="44.26879" lon="5.56291">
        <ele>1382</ele>
        <time>2018-10-29T11:28:43Z</time>
      </trkpt>
      <trkpt lat="44.26878" lon="5.56329">
        <ele>1386</ele>
        <time>2018-10-29T11:29:43Z</time>
      </trkpt>
      <trkpt lat="44.2688" lon="5.56383">
        <ele>1393</ele>
        <time>2018-10-29T11:30:43Z</time>
      </trkpt>
      <trkpt lat="44.26874" lon="5.56432">
        <ele>1399</ele>
        <time>2018-10-29T11:31:43Z</time>
      </trkpt>
      <trkpt lat="44.26876" lon="5.56471">
        <ele>1404</ele>
        <time>2018-10-29T11:32:43Z</time>
      </trkpt>
      <trkpt lat="44.26872" lon="5.56497">
        <ele>1408</ele>
        <time>2018-10-29T11:33:43Z</time>
      </trkpt>
      <trkpt lat="44.2687" lon="5.56532">
        <ele>1410</ele>
        <time>2018-10-29T11:34:43Z</time>
      </trkpt>
      <trkpt lat="44.26866" lon="5.56552">
        <ele>1411</ele>
        <time>2018-10-29T11:35:43Z</time>
      </trkpt>
      <trkpt lat="44.26861" lon="5.56568">
        <ele>1412</ele>
        <time>2018-10-29T11:36:43Z</time>
      </trkpt>
      <trkpt lat="44.26836" lon="5.56596">
        <ele>1415</ele>
        <time>2018-10-29T11:37:43Z</time>
      </trkpt>
      <trkpt lat="44.26824" lon="5.56616">
        <ele>1414</ele>
        <time>2018-10-29T11:38:43Z</time>
      </trkpt>
      <trkpt lat="44.26812" lon="5.56628">
        <ele>1414</ele>
        <time>2018-10-29T11:39:43Z</time>
      </trkpt>
      <trkpt lat="44.26792" lon="5.56634">
        <ele>1416</ele>
        <time>2018-10-29T11:40:43Z</time>
      </trkpt>
      <trkpt lat="44.2676" lon="5.5664">
        <ele>1420</ele>
        <time>2018-10-29T11:41:43Z</time>
      </trkpt>
      <trkpt lat="44.26705" lon="5.56693">
        <ele>1427</ele>
        <time>2018-10-29T11:42:43Z</time>
      </trkpt>
      <trkpt lat="44.26695" lon="5.56722">
        <ele>1429</ele>
        <time>2018-10-29T11:43:43Z</time>
      </trkpt>
      <trkpt lat="44.26676" lon="5.56758">
        <ele>1434</ele>
        <time>2018-10-29T11:44:43Z</time>
      </trkpt>
      <trkpt lat="44.26653" lon="5.56775">
        <ele>1439</ele>
        <time>2018-10-29T11:45:43Z</time>
      </trkpt>
      <trkpt lat="44.26629" lon="5.56801">
        <ele>1445</ele>
        <time>2018-10-29T11:46:43Z</time>
      </trkpt>
      <trkpt lat="44.26615" lon="5.56816">
        <ele>1449</ele>
        <time>2018-10-29T11:47:43Z</time>
      </trkpt>
      <trkpt lat="44.26579" lon="5.56867">
        <ele>1459</ele>
        <time>2018-10-29T11:48:43Z</time>
      </trkpt>
      <trkpt lat="44.2655" lon="5.5688">
        <ele>1466</ele>
        <time>2018-10-29T11:49:43Z</time>
      </trkpt>
      <trkpt lat="44.26513" lon="5.56886">
        <ele>1476</ele>
        <time>2018-10-29T11:50:43Z</time>
      </trkpt>
      <trkpt lat="44.26444" lon="5.56899">
        <ele>1484</ele>
        <time>2018-10-29T11:51:43Z</time>
      </trkpt>
      <trkpt lat="44.2642" lon="5.56916">
        <ele>1490</ele>
        <time>2018-10-29T11:52:43Z</time>
      </trkpt>
      <trkpt lat="44.26412" lon="5.56971">
        <ele>1497</ele>
        <time>2018-10-29T11:53:43Z</time>
      </trkpt>
      <trkpt lat="44.26396" lon="5.56977">
        <ele>1498</ele>
        <time>2018-10-29T11:54:43Z</time>
      </trkpt>
      <trkpt lat="44.26349" lon="5.5706">
        <ele>1501</ele>
        <time>2018-10-29T11:55:43Z</time>
      </trkpt>
      <trkpt lat="44.2635" lon="5.57103">
        <ele>1495</ele>
        <time>2018-10-29T11:56:43Z</time>
      </trkpt>
      <trkpt lat="44.26376" lon="5.57107">
        <ele>1486</ele>
        <time>2018-10-29T11:57:43Z</time>
      </trkpt>
      <trkpt lat="44.26393" lon="5.57084">
        <ele>1496</ele>
        <time>2018-10-29T11:58:43Z</time>
      </trkpt>
      <trkpt lat="44.26394" lon="5.57068">
        <ele>1497</ele>
        <time>2018-10-29T11:59:43Z</time>
      </trkpt>
      <trkpt lat="44.26395" lon="5.5704">
        <ele>1498</ele>
        <time>2018-10-29T12:00:43Z</time>
      </trkpt>
      <trkpt lat="44.26383" lon="5.57078">
        <ele>1498</ele>
        <time>2018-10-29T12:01:43Z</time>
      </trkpt>
      <trkpt lat="44.26371" lon="5.57092">
        <ele>1495</ele>
        <time>2018-10-29T12:02:43Z</time>
      </trkpt>
      <trkpt lat="44.26336" lon="5.57121">
        <ele>1495</ele>
        <time>2018-10-29T12:03:43Z</time>
      </trkpt>
      <trkpt lat="44.26322" lon="5.57131">
        <ele>1495</ele>
        <time>2018-10-29T12:04:43Z</time>
      </trkpt>
      <trkpt lat="44.26293" lon="5.57153">
        <ele>1495</ele>
        <time>2018-10-29T12:05:43Z</time>
      </trkpt>
      <trkpt lat="44.26274" lon="5.57177">
        <ele>1493</ele>
        <time>2018-10-29T12:06:43Z</time>
      </trkpt>
      <trkpt lat="44.26233" lon="5.57201">
        <ele>1496</ele>
        <time>2018-10-29T12:07:43Z</time>
      </trkpt>
      <trkpt lat="44.26176" lon="5.57197">
        <ele>1512</ele>
        <time>2018-10-29T12:08:43Z</time>
      </trkpt>
      <trkpt lat="44.2611" lon="5.57221">
        <ele>1512</ele>
        <time>2018-10-29T12:09:43Z</time>
      </trkpt>
      <trkpt lat="44.26024" lon="5.57207">
        <ele>1495</ele>
        <time>2018-10-29T12:10:43Z</time>
      </trkpt>
      <trkpt lat="44.25972" lon="5.57169">
        <ele>1489</ele>
        <time>2018-10-29T12:11:43Z</time>
      </trkpt>
      <trkpt lat="44.25938" lon="5.57137">
        <ele>1481</ele>
        <time>2018-10-29T12:12:43Z</time>
      </trkpt>
      <trkpt lat="44.25943" lon="5.57054">
        <ele>1492</ele>
        <time>2018-10-29T12:13:43Z</time>
      </trkpt>
      <trkpt lat="44.25941" lon="5.57007">
        <ele>1496</ele>
        <time>2018-10-29T12:14:43Z</time>
      </trkpt>
      <trkpt lat="44.25942" lon="5.56964">
        <ele>1499</ele>
        <time>2018-10-29T12:15:43Z</time>
      </trkpt>
      <trkpt lat="44.2595" lon="5.56917">
        <ele>1501</ele>
        <time>2018-10-29T12:16:43Z</time>
      </trkpt>
      <trkpt lat="44.25936" lon="5.56893">
        <ele>1502</ele>
        <time>2018-10-29T12:17:43Z</time>
      </trkpt>
      <trkpt lat="44.25935" lon="5.56872">
        <ele>1503</ele>
        <time>2018-10-29T12:18:43Z</time>
      </trkpt>
      <trkpt lat="44.25951" lon="5.56857">
        <ele>1504</ele>
        <time>2018-10-29T12:19:43Z</time>
      </trkpt>
      <trkpt lat="44.25964" lon="5.56795">
        <ele>1504</ele>
        <time>2018-10-29T12:20:43Z</time>
      </trkpt>
      <trkpt lat="44.25958" lon="5.56775">
        <ele>1502</ele>
        <time>2018-10-29T12:21:43Z</time>
      </trkpt>
      <trkpt lat="44.25988" lon="5.56751">
        <ele>1504</ele>
        <time>2018-10-29T12:22:43Z</time>
      </trkpt>
      <trkpt lat="44.25964" lon="5.56746">
        <ele>1500</ele>
        <time>2018-10-29T12:23:43Z</time>
      </trkpt>
      <trkpt lat="44.26011" lon="5.56696">
        <ele>1499</ele>
        <time>2018-10-29T12:24:43Z</time>
      </trkpt>
      <trkpt lat="44.25982" lon="5.56666">
        <ele>1492</ele>
        <time>2018-10-29T12:25:43Z</time>
      </trkpt>
      <trkpt lat="44.25966" lon="5.56609">
        <ele>1478</ele>
        <time>2018-10-29T12:26:43Z</time>
      </trkpt>
      <trkpt lat="44.25961" lon="5.56575">
        <ele>1470</ele>
        <time>2018-10-29T12:27:43Z</time>
      </trkpt>
      <trkpt lat="44.25959" lon="5.56544">
        <ele>1462</ele>
        <time>2018-10-29T12:28:43Z</time>
      </trkpt>
      <trkpt lat="44.25961" lon="5.56506">
        <ele>1455</ele>
        <time>2018-10-29T12:29:43Z</time>
      </trkpt>
      <trkpt lat="44.25944" lon="5.56496">
        <ele>1448</ele>
        <time>2018-10-29T12:30:43Z</time>
      </trkpt>
      <trkpt lat="44.25936" lon="5.56479">
        <ele>1442</ele>
        <time>2018-10-29T12:31:43Z</time>
      </trkpt>
      <trkpt lat="44.2595" lon="5.56449">
        <ele>1440</ele>
        <time>2018-10-29T12:32:43Z</time>
      </trkpt>
      <trkpt lat="44.25971" lon="5.56418">
        <ele>1438</ele>
        <time>2018-10-29T12:33:43Z</time>
      </trkpt>
      <trkpt lat="44.2596" lon="5.5637">
        <ele>1427</ele>
        <time>2018-10-29T12:34:43Z</time>
      </trkpt>
      <trkpt lat="44.25943" lon="5.56355">
        <ele>1420</ele>
        <time>2018-10-29T12:35:43Z</time>
      </trkpt>
      <trkpt lat="44.25948" lon="5.56312">
        <ele>1418</ele>
        <time>2018-10-29T12:36:43Z</time>
      </trkpt>
      <trkpt lat="44.25962" lon="5.56251">
        <ele>1422</ele>
        <time>2018-10-29T12:37:43Z</time>
      </trkpt>
      <trkpt lat="44.25976" lon="5.56197">
        <ele>1426</ele>
        <time>2018-10-29T12:38:43Z</time>
      </trkpt>
      <trkpt lat="44.25974" lon="5.56154">
        <ele>1424</ele>
        <time>2018-10-29T12:39:43Z</time>
      </trkpt>
      <trkpt lat="44.25961" lon="5.56162">
        <ele>1421</ele>
        <time>2018-10-29T12:40:43Z</time>
      </trkpt>
      <trkpt lat="44.25951" lon="5.56163">
        <ele>1418</ele>
        <time>2018-10-29T12:41:43Z</time>
      </trkpt>
      <trkpt lat="44.25955" lon="5.56136">
        <ele>1419</ele>
        <time>2018-10-29T12:42:43Z</time>
      </trkpt>
      <trkpt lat="44.25966" lon="5.56083">
        <ele>1420</ele>
        <time>2018-10-29T12:43:43Z</time>
      </trkpt>
      <trkpt lat="44.25957" lon="5.56021">
        <ele>1417</ele>
        <time>2018-10-29T12:44:43Z</time>
      </trkpt>
      <trkpt lat="44.25959" lon="5.55996">
        <ele>1418</ele>
        <time>2018-10-29T12:45:43Z</time>
      </trkpt>
      <trkpt lat="44.25949" lon="5.55981">
        <ele>1416</ele>
        <time>2018-10-29T12:46:43Z</time>
      </trkpt>
      <trkpt lat="44.25913" lon="5.55892">
        <ele>1408</ele>
        <time>2018-10-29T12:47:43Z</time>
      </trkpt>
      <trkpt lat="44.25919" lon="5.55811">
        <ele>1408</ele>
        <time>2018-10-29T12:48:43Z</time>
      </trkpt>
      <trkpt lat="44.25914" lon="5.55714">
        <ele>1400</ele>
        <time>2018-10-29T12:49:43Z</time>
      </trkpt>
      <trkpt lat="44.25891" lon="5.55628">
        <ele>1383</ele>
        <time>2018-10-29T12:50:43Z</time>
      </trkpt>
      <trkpt lat="44.25874" lon="5.55608">
        <ele>1374</ele>
        <time>2018-10-29T12:51:43Z</time>
      </trkpt>
      <trkpt lat="44.25876" lon="5.55553">
        <ele>1366</ele>
        <time>2018-10-29T12:52:43Z</time>
      </trkpt>
      <trkpt lat="44.25879" lon="5.55512">
        <ele>1360</ele>
        <time>2018-10-29T12:53:43Z</time>
      </trkpt>
      <trkpt lat="44.2585" lon="5.55482">
        <ele>1349</ele>
        <time>2018-10-29T12:54:43Z</time>
      </trkpt>
      <trkpt lat="44.25809" lon="5.55505">
        <ele>1348</ele>
        <time>2018-10-29T12:55:43Z</time>
      </trkpt>
      <trkpt lat="44.25783" lon="5.55525">
        <ele>1349</ele>
        <time>2018-10-29T12:56:43Z</time>
      </trkpt>
      <trkpt lat="44.25758" lon="5.55556">
        <ele>1349</ele>
        <time>2018-10-29T12:57:43Z</time>
      </trkpt>
      <trkpt lat="44.25745" lon="5.55543">
        <ele>1348</ele>
        <time>2018-10-29T12:58:43Z</time>
      </trkpt>
      <trkpt lat="44.25741" lon="5.55494">
        <ele>1348</ele>
        <time>2018-10-29T12:59:43Z</time>
      </trkpt>
      <trkpt lat="44.25722" lon="5.55461">
        <ele>1350</ele>
        <time>2018-10-29T13:00:43Z</time>
      </trkpt>
      <trkpt lat="44.25683" lon="5.55403">
        <ele>1355</ele>
        <time>2018-10-29T13:01:43Z</time>
      </trkpt>
      <trkpt lat="44.25654" lon="5.5534">
        <ele>1358</ele>
        <time>2018-10-29T13:02:43Z</time>
      </trkpt>
      <trkpt lat="44.25593" lon="5.55188">
        <ele>1363</ele>
        <time>2018-10-29T13:03:43Z</time>
      </trkpt>
      <trkpt lat="44.25595" lon="5.55009">
        <ele>1374</ele>
        <time>2018-10-29T13:04:43Z</time>
      </trkpt>
      <trkpt lat="44.25554" lon="5.54807">
        <ele>1370</ele>
        <time>2018-10-29T13:05:43Z</time>
      </trkpt>
      <trkpt lat="44.25531" lon="5.54723">
        <ele>1358</ele>
        <time>2018-10-29T13:06:43Z</time>
      </trkpt>
      <trkpt lat="44.25573" lon="5.54486">
        <ele>1340</ele>
        <time>2018-10-29T13:07:43Z</time>
      </trkpt>
      <trkpt lat="44.25487" lon="5.54387">
        <ele>1329</ele>
        <time>2018-10-29T13:08:43Z</time>
      </trkpt>
      <trkpt lat="44.2546" lon="5.54281">
        <ele>1315</ele>
        <time>2018-10-29T13:09:43Z</time>
      </trkpt>
      <trkpt lat="44.25453" lon="5.54095">
        <ele>1315</ele>
        <time>2018-10-29T13:10:43Z</time>
      </trkpt>
      <trkpt lat="44.25451" lon="5.53819">
        <ele>1312</ele>
        <time>2018-10-29T13:11:43Z</time>
      </trkpt>
      <trkpt lat="44.25425" lon="5.53508">
        <ele>1279</ele>
        <time>2018-10-29T13:12:43Z</time>
      </trkpt>
      <trkpt lat="44.25422" lon="5.53349">
        <ele>1262</ele>
        <time>2018-10-29T13:13:43Z</time>
      </trkpt>
      <trkpt lat="44.25403" lon="5.53106">
        <ele>1234</ele>
        <time>2018-10-29T13:14:43Z</time>
      </trkpt>
      <trkpt lat="44.25396" lon="5.52931">
        <ele>1237</ele>
        <time>2018-10-29T13:15:43Z</time>
      </trkpt>
      <trkpt lat="44.25369" lon="5.52741">
        <ele>1231</ele>
        <time>2018-10-29T13:16:43Z</time>
      </trkpt>
      <trkpt lat="44.2538" lon="5.52536">
        <ele>1214</ele>
        <time>2018-10-29T13:17:43Z</time>
      </trkpt>
      <trkpt lat="44.25382" lon="5.5233">
        <ele>1188</ele>
        <time>2018-10-29T13:18:43Z</time>
      </trkpt>
      <trkpt lat="44.2538" lon="5.52027">
        <ele>1164</ele>
        <time>2018-10-29T13:19:43Z</time>
      </trkpt>
      <trkpt lat="44.25417" lon="5.51513">
        <ele>1121</ele>
        <time>2018-10-29T13:20:43Z</time>
      </trkpt>
      <trkpt lat="44.2542" lon="5.51426">
        <ele>1109</ele>
        <time>2018-10-29T13:21:43Z</time>
      </trkpt>
      <trkpt lat="44.25383" lon="5.51372">
        <ele>1106</ele>
        <time>2018-10-29T13:22:43Z</time>
      </trkpt>
      <trkpt lat="44.25354" lon="5.51363">
        <ele>1107</ele>
        <time>2018-10-29T13:23:43Z</time>
      </trkpt>
      <trkpt lat="44.25337" lon="5.51358">
        <ele>1108</ele>
        <time>2018-10-29T13:24:43Z</time>
      </trkpt>
      <trkpt lat="44.25361" lon="5.5131">
        <ele>1108</ele>
        <time>2018-10-29T13:25:43Z</time>
      </trkpt>
      <trkpt lat="44.25319" lon="5.51261">
        <ele>1114</ele>
        <time>2018-10-29T13:26:43Z</time>
      </trkpt>
      <trkpt lat="44.253" lon="5.51235">
        <ele>1114</ele>
        <time>2018-10-29T13:27:43Z</time>
      </trkpt>
      <trkpt lat="44.25277" lon="5.51246">
        <ele>1113</ele>
        <time>2018-10-29T13:28:43Z</time>
      </trkpt>
      <trkpt lat="44.25246" lon="5.51243">
        <ele>1110</ele>
        <time>2018-10-29T13:29:43Z</time>
      </trkpt>
      <trkpt lat="44.25224" lon="5.51252">
        <ele>1107</ele>
        <time>2018-10-29T13:30:43Z</time>
      </trkpt>
      <trkpt lat="44.25208" lon="5.51287">
        <ele>1106</ele>
        <time>2018-10-29T13:31:43Z</time>
      </trkpt>
      <trkpt lat="44.25186" lon="5.51311">
        <ele>1104</ele>
        <time>2018-10-29T13:32:43Z</time>
      </trkpt>
      <trkpt lat="44.2517" lon="5.51347">
        <ele>1105</ele>
        <time>2018-10-29T13:33:43Z</time>
      </trkpt>
      <trkpt lat="44.25148" lon="5.51343">
        <ele>1102</ele>
        <time>2018-10-29T13:34:43Z</time>
      </trkpt>
      <trkpt lat="44.2516" lon="5.51233">
        <ele>1094</ele>
        <time>2018-10-29T13:35:43Z</time>
      </trkpt>
      <trkpt lat="44.25164" lon="5.51072">
        <ele>1079</ele>
        <time>2018-10-29T13:36:43Z</time>
      </trkpt>
      <trkpt lat="44.25151" lon="5.50941">
        <ele>1070</ele>
        <time>2018-10-29T13:37:43Z</time>
      </trkpt>
      <trkpt lat="44.2515" lon="5.50811">
        <ele>1066</ele>
        <time>2018-10-29T13:38:43Z</time>
      </trkpt>
      <trkpt lat="44.25115" lon="5.50661">
        <ele>1043</ele>
        <time>2018-10-29T13:39:43Z</time>
      </trkpt>
      <trkpt lat="44.25113" lon="5.50565">
        <ele>1034</ele>
        <time>2018-10-29T13:40:43Z</time>
      </trkpt>
      <trkpt lat="44.25116" lon="5.50378">
        <ele>1016</ele>
        <time>2018-10-29T13:41:43Z</time>
      </trkpt>
      <trkpt lat="44.25113" lon="5.50282">
        <ele>1007</ele>
        <time>2018-10-29T13:42:43Z</time>
      </trkpt>
      <trkpt lat="44.25087" lon="5.50026">
        <ele>989</ele>
        <time>2018-10-29T13:43:43Z</time>
      </trkpt>
      <trkpt lat="44.2506" lon="5.49871">
        <ele>981</ele>
        <time>2018-10-29T13:44:43Z</time>
      </trkpt>
      <trkpt lat="44.25036" lon="5.4971">
        <ele>980</ele>
        <time>2018-10-29T13:45:43Z</time>
      </trkpt>
      <trkpt lat="44.24981" lon="5.49651">
        <ele>969</ele>
        <time>2018-10-29T13:46:43Z</time>
      </trkpt>
      <trkpt lat="44.24944" lon="5.49701">
        <ele>958</ele>
        <time>2018-10-29T13:47:43Z</time>
      </trkpt>
      <trkpt lat="44.24888" lon="5.49724">
        <ele>947</ele>
        <time>2018-10-29T13:48:43Z</time>
      </trkpt>
      <trkpt lat="44.24777" lon="5.49654">
        <ele>937</ele>
        <time>2018-10-29T13:49:43Z</time>
      </trkpt>
      <trkpt lat="44.24731" lon="5.49784">
        <ele>919</ele>
        <time>2018-10-29T13:50:43Z</time>
      </trkpt>
      <trkpt lat="44.24715" lon="5.49896">
        <ele>907</ele>
        <time>2018-10-29T13:51:43Z</time>
      </trkpt>
      <trkpt lat="44.24715" lon="5.49981">
        <ele>902</ele>
        <time>2018-10-29T13:52:43Z</time>
      </trkpt>
      <trkpt lat="44.24702" lon="5.50102">
        <ele>902</ele>
        <time>2018-10-29T13:53:43Z</time>
      </trkpt>
      <trkpt lat="44.24696" lon="5.50194">
        <ele>903</ele>
        <time>2018-10-29T13:54:43Z</time>
      </trkpt>
      <trkpt lat="44.24669" lon="5.50421">
        <ele>891</ele>
        <time>2018-10-29T13:55:43Z</time>
      </trkpt>
      <trkpt lat="44.24608" lon="5.50455">
        <ele>888</ele>
        <time>2018-10-29T13:56:43Z</time>
      </trkpt>
      <trkpt lat="44.24552" lon="5.50473">
        <ele>886</ele>
        <time>2018-10-29T13:57:43Z</time>
      </trkpt>
      <trkpt lat="44.24481" lon="5.50535">
        <ele>884</ele>
        <time>2018-10-29T13:58:43Z</time>
      </trkpt>
      <trkpt lat="44.24507" lon="5.50637">
        <ele>891</ele>
        <time>2018-10-29T13:59:43Z</time>
      </trkpt>
      <trkpt lat="44.24474" lon="5.50735">
        <ele>890</ele>
        <time>2018-10-29T14:00:43Z</time>
      </trkpt>
      <trkpt lat="44.24474" lon="5.50798">
        <ele>893</ele>
        <time>2018-10-29T14:01:43Z</time>
      </trkpt>
      <trkpt lat="44.24333" lon="5.51045">
        <ele>896</ele>
        <time>2018-10-29T14:02:43Z</time>
      </trkpt>
      <trkpt lat="44.24318" lon="5.5102">
        <ele>893</ele>
        <time>2018-10-29T14:03:43Z</time>
      </trkpt>
      <trkpt lat="44.24331" lon="5.50988">
        <ele>891</ele>
        <time>2018-10-29T14:04:43Z</time>
      </trkpt>
      <trkpt lat="44.24234" lon="5.50962">
        <ele>878</ele>
        <time>2018-10-29T14:05:43Z</time>
      </trkpt>
      <trkpt lat="44.24251" lon="5.50811">
        <ele>868</ele>
        <time>2018-10-29T14:06:43Z</time>
      </trkpt>
      <trkpt lat="44.24175" lon="5.50861">
        <ele>868</ele>
        <time>2018-10-29T14:07:43Z</time>
      </trkpt>
      <trkpt lat="44.24176" lon="5.50619">
        <ele>862</ele>
        <time>2018-10-29T14:08:43Z</time>
      </trkpt>
      <trkpt lat="44.24143" lon="5.50434">
        <ele>851</ele>
        <time>2018-10-29T14:09:43Z</time>
      </trkpt>
      <trkpt lat="44.24026" lon="5.50318">
        <ele>846</ele>
        <time>2018-10-29T14:10:43Z</time>
      </trkpt>
      <trkpt lat="44.23679" lon="5.50149">
        <ele>838</ele>
        <time>2018-10-29T14:11:43Z</time>
      </trkpt>
      <trkpt lat="44.23451" lon="5.501">
        <ele>836</ele>
        <time>2018-10-29T14:12:43Z</time>
      </trkpt>
      <trkpt lat="44.23181" lon="5.5017">
        <ele>827</ele>
        <time>2018-10-29T14:13:43Z</time>
      </trkpt>
      <trkpt lat="44.23022" lon="5.50264">
        <ele>826</ele>
        <time>2018-10-29T14:14:43Z</time>
      </trkpt>
      <trkpt lat="44.23009" lon="5.50387">
        <ele>835</ele>
        <time>2018-10-29T14:15:43Z</time>
      </trkpt>
      <trkpt lat="44.22982" lon="5.50527">
        <ele>841</ele>
        <time>2018-10-29T14:16:43Z</time>
      </trkpt>
      <trkpt lat="44.22966" lon="5.50641">
        <ele>840</ele>
        <time>2018-10-29T14:17:43Z</time>
      </trkpt>
      <trkpt lat="44.23013" lon="5.50748">
        <ele>845</ele>
        <time>2018-10-29T14:18:43Z</time>
      </trkpt>
      <trkpt lat="44.2294" lon="5.5071">
        <ele>838</ele>
        <time>2018-10-29T14:19:43Z</time>
      </trkpt>
      <trkpt lat="44.22948" lon="5.50662">
        <ele>838</ele>
        <time>2018-10-29T14:20:43Z</time>
      </trkpt>
    </trkseg>
  </trk>
</gpx>